createdAt,value
2019-04-14T00:03:17.296Z,5.97
2019-04-14T00:08:17.739Z,5.30
2019-04-14T00:13:17.571Z,4.42
2019-04-14T00:18:05.433Z,4.69
2019-04-14T00:23:13.039Z,4.33
2019-04-14T00:28:19.307Z,4.15
2019-04-14T00:33:28.156Z,4.44
2019-04-14T00:38:35.373Z,4.71
2019-04-14T00:43:43.901Z,4.44
2019-04-14T00:49:04.867Z,4.41
2019-04-14T00:53:51.555Z,4.65
2019-04-14T00:58:58.863Z,4.93
2019-04-14T01:04:19.135Z,4.76
2019-04-14T01:09:06.441Z,4.54
2019-04-14T01:14:27.689Z,4.56
2019-04-14T01:19:13.913Z,5.11
2019-04-14T01:24:22.729Z,4.46
2019-04-14T01:29:29.670Z,4.82
2019-04-14T01:34:36.907Z,4.33
2019-04-14T01:39:43.534Z,4.64
2019-04-14T01:49:53.009Z,4.77
2019-04-14T01:55:00.426Z,4.56
2019-04-14T02:00:07.545Z,4.33
2019-04-14T02:05:27.766Z,4.34
2019-04-14T02:10:15.104Z,4.66
2019-04-14T02:15:22.260Z,4.87
2019-04-14T02:20:29.651Z,4.46
2019-04-14T02:25:38.227Z,5.07
2019-04-14T02:30:52.321Z,4.56
2019-04-14T02:36:27.529Z,5.20
2019-04-14T02:41:46.786Z,4.59
2019-04-14T02:46:47.703Z,4.42
2019-04-14T02:51:31.009Z,4.47
2019-04-14T02:56:45.473Z,4.16
2019-04-14T03:06:41.179Z,4.09
2019-04-14T03:11:45.999Z,4.38
2019-04-14T03:22:04.872Z,4.75
2019-04-14T03:26:54.602Z,4.30
2019-04-14T03:32:23.326Z,4.83
2019-04-14T03:37:39.618Z,4.59
2019-04-14T03:42:28.714Z,5.06
2019-04-14T03:47:31.482Z,4.62
2019-04-14T03:52:56.137Z,4.52
2019-04-14T03:57:15.383Z,4.81
2019-04-14T04:02:24.497Z,4.67
2019-04-14T04:07:32.188Z,4.80
2019-04-14T04:12:38.225Z,4.75
2019-04-14T04:18:00.288Z,4.90
2019-04-14T04:22:47.615Z,4.67
2019-04-14T04:27:54.746Z,4.50
2019-04-14T04:33:02.321Z,4.61
2019-04-14T04:38:09.561Z,5.07
2019-04-14T04:43:31.909Z,5.84
2019-04-14T04:48:19.664Z,6.04
2019-04-14T04:53:26.658Z,6.98
2019-04-14T04:58:33.411Z,7.73
2019-04-14T05:03:54.379Z,7.38
2019-04-14T05:08:43.476Z,7.27
2019-04-14T05:13:51.198Z,7.52
2019-04-14T05:19:11.441Z,7.96
2019-04-14T05:24:04.967Z,7.07
2019-04-14T05:29:12.435Z,7.25
2019-04-14T05:34:19.433Z,7.94
2019-04-14T05:39:26.595Z,7.67
2019-04-14T05:44:34.696Z,6.24
2019-04-14T05:49:57.513Z,6.69
2019-04-14T05:54:43.316Z,6.34
2019-04-14T05:59:52.666Z,5.34
2019-04-14T06:04:59.327Z,6.17
2019-04-14T06:10:06.170Z,5.75
2019-04-14T06:15:13.427Z,5.68
2019-04-14T06:20:20.642Z,6.06
2019-04-14T06:25:28.901Z,6.59
2019-04-14T06:30:36.203Z,6.14
2019-04-14T06:35:43.471Z,6.76
2019-04-14T06:41:03.909Z,6.89
2019-04-14T06:45:50.983Z,6.83
2019-04-14T06:51:12.425Z,6.31
2019-04-14T06:56:13.367Z,5.96
2019-04-14T07:01:01.778Z,5.33
2019-04-14T07:06:08.961Z,4.87
2019-04-14T07:11:17.379Z,5.02
2019-04-14T07:16:37.451Z,4.97
2019-04-14T07:21:37.911Z,5.32
2019-04-14T07:26:25.186Z,5.25
2019-04-14T07:31:46.674Z,5.21
2019-04-14T07:36:47.947Z,5.40
2019-04-14T07:41:34.678Z,4.73
2019-04-14T07:46:54.770Z,4.36
2019-04-14T07:51:42.246Z,4.09
2019-04-14T07:56:49.320Z,4.11
2019-04-14T08:01:56.496Z,3.91
2019-04-14T08:07:04.576Z,3.82
2019-04-14T08:12:26.203Z,3.59
2019-04-14T08:17:13.469Z,4.05
2019-04-14T08:27:21.691Z,3.78
2019-04-14T08:32:41.955Z,4.21
2019-04-14T08:37:41.919Z,4.07
2019-04-14T08:42:43.142Z,5.08
2019-04-14T08:52:47.021Z,4.62
2019-04-14T08:57:47.279Z,3.91
2019-04-14T09:02:47.539Z,3.69
2019-04-14T09:12:51.317Z,3.57
2019-04-14T09:17:38.414Z,3.49
2019-04-14T09:22:46.714Z,3.84
2019-04-14T09:32:54.727Z,3.78
2019-04-14T09:38:02.895Z,4.29
2019-04-14T09:43:10.217Z,3.99
2019-04-14T09:48:30.362Z,3.88
2019-04-14T09:53:17.882Z,4.12
2019-04-14T10:03:26.064Z,3.68
2019-04-14T10:13:37.049Z,3.18
2019-04-14T10:18:44.295Z,3.36
2019-04-14T10:23:51.689Z,3.24
2019-04-14T10:28:58.917Z,3.36
2019-04-14T10:34:19.782Z,3.77
2019-04-14T10:39:20.735Z,3.44
2019-04-14T10:44:21.188Z,3.57
2019-04-14T10:49:21.221Z,3.49
2019-04-14T10:54:09.744Z,3.48
2019-04-14T10:59:16.883Z,3.63
2019-04-14T11:04:25.457Z,4.14
2019-04-14T11:09:45.434Z,3.90
2019-04-14T11:14:46.712Z,3.62
2019-04-14T11:19:47.823Z,3.56
2019-04-14T11:24:35.068Z,3.85
2019-04-14T11:29:43.262Z,3.76
2019-04-14T11:35:03.664Z,3.73
2019-04-14T11:39:51.393Z,3.69
2019-04-14T11:44:58.958Z,3.03
2019-04-14T11:50:06.398Z,3.03
2019-04-14T11:55:13.711Z,2.90
2019-04-14T12:00:21.146Z,3.11
2019-04-14T12:05:48.016Z,3.48
2019-04-14T12:10:34.288Z,3.89
2019-04-14T12:15:42.042Z,3.54
2019-04-14T12:20:50.744Z,3.38
2019-04-14T12:26:12.104Z,3.28
2019-04-14T12:30:59.794Z,3.34
2019-04-14T12:36:19.607Z,2.93
2019-04-14T12:41:06.826Z,2.74
2019-04-14T12:46:14.040Z,2.96
2019-04-14T12:51:22.221Z,3.12
2019-04-14T12:56:43.586Z,3.51
2019-04-14T13:01:29.838Z,3.40
2019-04-14T13:06:37.148Z,3.05
2019-04-14T13:11:45.307Z,3.21
2019-04-14T13:16:52.682Z,3.28
2019-04-14T13:21:59.777Z,3.00
2019-04-14T13:27:07.325Z,3.05
2019-04-14T13:32:15.519Z,3.00
2019-04-14T13:37:22.826Z,3.07
2019-04-14T13:42:30.938Z,2.75
2019-04-14T13:47:39.092Z,3.25
2019-04-14T13:52:47.519Z,2.83
2019-04-14T13:57:54.443Z,2.80
2019-04-14T14:03:02.541Z,2.73
2019-04-14T14:08:14.759Z,2.73
2019-04-14T14:13:11.821Z,2.70
2019-04-14T14:18:20.252Z,2.57
2019-04-14T14:23:27.984Z,3.18
2019-04-14T14:28:35.087Z,3.41
2019-04-14T14:33:42.185Z,3.43
2019-04-14T14:38:50.693Z,2.75
2019-04-14T14:43:57.896Z,2.79
2019-04-14T14:49:06.077Z,2.55
2019-04-14T14:54:14.232Z,2.88
2019-04-14T14:59:21.478Z,2.60
2019-04-14T15:04:42.523Z,2.84
2019-04-14T15:09:43.938Z,2.97
2019-04-14T15:19:34.795Z,3.18
2019-04-14T15:24:43.108Z,2.82
2019-04-14T15:29:50.495Z,3.01
2019-04-14T15:34:57.617Z,3.16
2019-04-14T15:40:06.136Z,2.89
2019-04-14T15:45:14.142Z,2.84
2019-04-14T15:50:20.693Z,3.18
2019-04-14T15:55:28.899Z,2.77
2019-04-14T16:00:36.269Z,2.70
2019-04-14T16:05:57.211Z,2.40
2019-04-14T16:10:45.518Z,2.36
2019-04-14T16:15:53.682Z,2.01
2019-04-14T16:21:00.892Z,1.43
2019-04-14T16:26:21.896Z,1.92
2019-04-14T16:31:23.161Z,2.06
2019-04-14T16:36:11.913Z,2.19
2019-04-14T16:41:20.278Z,2.20
2019-04-14T16:51:40.675Z,2.29
2019-04-14T16:56:28.055Z,2.51
2019-04-14T17:01:48.334Z,2.59
2019-04-14T17:06:48.311Z,2.74
2019-04-14T17:11:49.661Z,2.81
2019-04-14T17:16:49.726Z,3.01
2019-04-14T17:21:51.219Z,3.36
2019-04-14T17:26:41.392Z,2.87
2019-04-14T17:31:45.778Z,2.79
2019-04-14T17:37:05.745Z,2.83
2019-04-14T17:41:54.003Z,2.97
2019-04-14T17:47:15.149Z,2.91
2019-04-14T17:52:02.397Z,2.95
2019-04-14T17:57:10.586Z,2.57
2019-04-14T18:02:30.846Z,2.83
2019-04-14T18:07:30.996Z,2.95
2019-04-14T18:12:18.306Z,2.95
2019-04-14T18:22:29.255Z,3.07
2019-04-14T18:27:49.373Z,3.23
2019-04-14T18:32:36.734Z,3.05
2019-04-14T18:37:56.690Z,3.19
2019-04-14T18:42:45.041Z,3.11
2019-04-14T18:47:52.285Z,3.45
2019-04-14T18:53:12.406Z,3.46
2019-04-14T18:58:00.678Z,3.37
2019-04-14T19:03:20.903Z,3.11
2019-04-14T19:08:08.180Z,3.33
2019-04-14T19:13:18.205Z,3.08
2019-04-14T19:18:15.499Z,3.33
2019-04-14T19:23:22.827Z,3.21
2019-04-14T19:28:29.985Z,3.33
2019-04-14T19:33:51.517Z,3.57
2019-04-14T19:38:38.626Z,3.75
2019-04-14T19:43:46.974Z,3.56
2019-04-14T19:48:54.227Z,3.93
2019-04-14T19:59:15.247Z,4.35
2019-04-14T20:04:15.550Z,4.33
2019-04-14T20:09:02.675Z,4.32
2019-04-14T20:14:10.289Z,4.55
2019-04-14T20:19:17.521Z,5.08
2019-04-14T20:24:24.881Z,4.66
2019-04-14T20:29:32.080Z,5.56
2019-04-14T20:34:39.597Z,5.74
2019-04-14T20:39:46.754Z,5.78
2019-04-14T20:45:07.987Z,6.01
2019-04-14T20:49:56.086Z,6.54
2019-04-14T20:55:04.333Z,7.05
2019-04-14T21:00:12.411Z,7.01
2019-04-14T21:05:20.873Z,10.64
2019-04-14T21:10:40.942Z,10.47
2019-04-14T21:15:28.965Z,9.78
2019-04-14T21:20:37.077Z,9.26
2019-04-14T21:26:00.886Z,8.02
2019-04-14T21:30:58.528Z,8.10
2019-04-14T21:35:45.928Z,7.63
2019-04-14T21:40:53.086Z,8.40
2019-04-14T21:46:01.409Z,8.03
2019-04-14T21:51:08.663Z,8.38
2019-04-14T21:56:16.093Z,8.30
2019-04-14T22:01:24.335Z,8.58
2019-04-14T22:06:44.566Z,8.39
2019-04-14T22:11:44.537Z,9.32
2019-04-14T22:16:46.034Z,9.31
2019-04-14T22:21:47.461Z,9.97
2019-04-14T22:26:34.159Z,9.67
2019-04-14T22:31:41.265Z,9.47
2019-04-14T22:37:02.680Z,9.96
2019-04-14T22:41:49.939Z,9.97
2019-04-14T22:47:10.193Z,10.41
2019-04-14T22:51:57.469Z,10.82
2019-04-14T22:57:17.651Z,10.49
2019-04-14T23:02:18.704Z,11.05
2019-04-14T23:07:07.111Z,12.91
2019-04-14T23:12:27.122Z,12.31
2019-04-14T23:17:28.368Z,12.30
2019-04-14T23:22:28.990Z,13.96
2019-04-14T23:27:29.312Z,13.53
2019-04-14T23:32:16.446Z,14.42
2019-04-14T23:37:24.631Z,14.93
2019-04-14T23:42:32.803Z,15.27
2019-04-14T23:47:53.997Z,16.25
2019-04-14T23:52:42.209Z,15.49
2019-04-14T23:57:49.530Z,15.91
